Terminal Aerodrome Forecast
Issued by NWS

Home | Current Version | Previous Version | Text Only | Print | Product List | Glossary On
Versions: 1 2 3 4 5 6 7 8 9 10 11 12 13 14
000
FTUS42 KGSP 212326
TAFHKY
TAF
KHKY 212326Z 2200/2224 VRB02KT P6SM FEW050 SCT200
     FM220200 00000KT P6SM FEW050
     FM220800 VRB02KT P6SM FEW250
      TEMPO 2208/2212 5SM BR
     FM221400 VRB03KT P6SM FEW040
     FM221600 22005KT P6SM SCT045=

USA.gov is the U.S. government's official web portal to all federal, state and local government web resources and services.